Time;durP1;ratioP1;P1;durP2;ratioP2;P2;SDS_P1;SDS_P2;PMS_P1;PMS_P2;Temp;Humidity;BMP_temperature;BMP_pressure;BME280_temperature;BME280_humidity;BME280_pressure;Samples;Min_cycle;Max_cycle;Signal;HPM_P1;HPM_P2
2021/12/23 00:02:28;;;;;;;51.83;24.83;;;;;;;0.48;88.38;100717.91;8386397;28;20052;-64
2021/12/23 00:06:29;;;;;;;48.53;23.15;;;;;;;0.44;88.25;100727.00;8387714;28;20059;-64
2021/12/23 00:10:29;;;;;;;45.65;22.83;;;;;;;0.44;88.19;100714.56;8387433;28;20116;-64
2021/12/23 00:14:31;;;;;;;45.20;23.10;;;;;;;0.41;88.95;100701.41;8386787;28;20039;-64
2021/12/23 00:23:41;;;;;;;49.97;22.23;;;;;;;0.43;88.39;100688.91;8376840;28;20068;-64
2021/12/23 00:26:59;;;;;;;56.38;21.85;;;;;;;0.45;88.47;100687.03;8369586;28;20515;-64
2021/12/23 00:31:00;;;;;;;47.80;22.67;;;;;;;0.44;88.19;100689.75;8380419;28;20478;-64
2021/12/23 00:35:01;;;;;;;49.00;23.60;;;;;;;0.48;88.85;100681.56;8386265;28;20051;-64
2021/12/23 00:39:02;;;;;;;40.70;19.80;;;;;;;0.48;88.71;100670.06;8387339;28;20123;-64
2021/12/23 00:43:03;;;;;;;52.20;24.48;;;;;;;0.56;88.53;100667.91;8387232;28;20040;-64
2021/12/23 00:47:04;;;;;;;45.15;22.58;;;;;;;0.53;88.36;100657.41;8383674;28;20291;-64
2021/12/23 00:51:04;;;;;;;47.20;23.23;;;;;;;0.54;88.84;100648.47;8387083;28;20068;-64
2021/12/23 00:55:07;;;;;;;44.20;21.38;;;;;;;0.48;88.72;100654.09;8376426;28;20053;-65
2021/12/23 00:59:09;;;;;;;47.67;20.33;;;;;;;0.49;89.19;100645.22;8384071;28;20518;-64
2021/12/23 01:03:10;;;;;;;50.33;23.73;;;;;;;0.43;89.05;100646.38;8380664;28;20393;-64
2021/12/23 01:07:10;;;;;;;51.53;24.65;;;;;;;0.44;89.43;100642.78;8380406;28;20151;-64
2021/12/23 01:11:11;;;;;;;53.28;24.15;;;;;;;0.40;90.05;100621.72;8386930;28;20040;-64
2021/12/23 01:15:27;;;;;;;50.20;22.83;;;;;;;0.43;90.14;100621.56;8386563;28;20433;-64
2021/12/23 01:19:28;;;;;;;48.40;21.73;;;;;;;0.42;89.82;100606.56;8378509;28;20396;-64
2021/12/23 01:23:30;;;;;;;51.10;23.20;;;;;;;0.47;90.18;100607.19;8386452;28;20066;-64
2021/12/23 01:27:30;;;;;;;44.67;21.63;;;;;;;0.47;89.97;100607.19;8390131;28;20123;-64
2021/12/23 01:31:32;;;;;;;49.17;23.10;;;;;;;0.49;89.68;100613.28;8384937;28;20039;-64
2021/12/23 01:35:34;;;;;;;47.90;22.65;;;;;;;0.49;89.54;100618.63;8386440;28;20534;-64
2021/12/23 01:39:34;;;;;;;51.28;23.83;;;;;;;0.50;90.08;100601.72;8384953;28;20036;-64
2021/12/23 01:43:35;;;;;;;45.40;22.23;;;;;;;0.48;90.40;100590.28;8385915;28;20040;-64
2021/12/23 01:47:36;;;;;;;46.97;23.42;;;;;;;0.44;90.64;100570.09;8373532;28;20095;-64
2021/12/23 01:51:37;;;;;;;46.90;23.52;;;;;;;0.49;90.52;100576.06;8384486;28;20033;-64
2021/12/23 01:55:38;;;;;;;45.13;19.88;;;;;;;0.45;90.78;100579.81;8382240;28;20089;-64
2021/12/23 01:59:40;;;;;;;52.30;24.05;;;;;;;0.47;90.72;100585.91;8385305;28;20112;-64
2021/12/23 02:03:40;;;;;;;48.45;23.73;;;;;;;0.48;90.75;100577.84;8386279;28;20336;-64
2021/12/23 02:07:41;;;;;;;45.78;20.95;;;;;;;0.54;90.66;100574.03;8383662;28;20044;-64
2021/12/23 02:11:41;;;;;;;45.65;21.13;;;;;;;0.56;91.11;100561.50;8381457;28;20571;-64
2021/12/23 02:15:42;;;;;;;51.30;21.90;;;;;;;0.59;90.32;100550.72;8382163;28;20193;-64
2021/12/23 02:19:42;;;;;;;43.53;20.40;;;;;;;0.64;90.78;100541.56;8382629;28;20115;-64
2021/12/23 02:23:43;;;;;;;48.70;24.05;;;;;;;0.66;91.06;100536.16;8384549;28;20047;-64
2021/12/23 02:27:45;;;;;;;53.08;22.92;;;;;;;0.77;90.79;100536.50;8384737;28;20069;-64
2021/12/23 02:31:49;;;;;;;48.40;22.00;;;;;;;0.74;90.49;100523.34;8384470;28;20036;-64
2021/12/23 02:35:51;;;;;;;55.35;24.55;;;;;;;0.78;90.36;100540.88;8377749;28;20507;-64
2021/12/23 02:39:51;;;;;;;50.28;23.17;;;;;;;0.77;90.46;100534.69;8384287;28;20060;-64
2021/12/23 02:43:52;;;;;;;51.55;24.42;;;;;;;0.88;89.70;100542.13;8382409;28;20051;-64
2021/12/23 02:47:53;;;;;;;55.63;24.98;;;;;;;0.90;89.88;100548.22;8384428;28;20139;-64
2021/12/23 02:51:53;;;;;;;52.60;23.80;;;;;;;0.86;90.81;100528.03;8380580;28;20510;-64
2021/12/23 02:55:55;;;;;;;50.33;22.77;;;;;;;0.86;90.77;100517.41;8380849;28;20094;-64
2021/12/23 02:59:56;;;;;;;50.63;23.95;;;;;;;0.89;90.29;100517.22;8383942;28;20033;-64
2021/12/23 03:03:57;;;;;;;51.22;23.55;;;;;;;0.93;90.38;100522.31;8382191;28;20045;-64
2021/12/23 03:07:59;;;;;;;49.85;22.75;;;;;;;0.94;90.69;100509.84;8383318;28;20671;-64
2021/12/23 03:12:00;;;;;;;52.25;24.50;;;;;;;0.91;90.64;100510.03;8387362;28;20110;-64
2021/12/23 03:16:02;;;;;;;48.53;22.05;;;;;;;0.88;90.75;100507.53;8389687;28;20121;-64
2021/12/23 03:20:03;;;;;;;53.90;23.25;;;;;;;0.89;90.96;100511.91;8389625;28;20036;-64
2021/12/23 03:24:04;;;;;;;52.38;23.88;;;;;;;0.84;91.24;100500.63;8389489;28;20410;-64
2021/12/23 03:28:04;;;;;;;49.92;23.10;;;;;;;0.77;91.61;100481.50;8384926;28;20148;-64
2021/12/23 03:32:05;;;;;;;56.15;24.27;;;;;;;0.80;91.41;100496.44;8373475;28;20511;-64
2021/12/23 03:36:06;;;;;;;55.80;25.23;;;;;;;0.74;91.65;100502.94;8389326;28;20040;-64
2021/12/23 03:40:07;;;;;;;53.55;24.73;;;;;;;0.78;91.95;100508.94;8388379;28;20453;-65
2021/12/23 03:44:07;;;;;;;58.28;26.45;;;;;;;0.76;91.98;100505.53;8388754;28;20040;-64
2021/12/23 03:48:08;;;;;;;50.58;23.42;;;;;;;0.73;92.51;100495.03;8388095;28;20523;-64
2021/12/23 03:52:09;;;;;;;55.65;25.65;;;;;;;0.72;92.91;100498.63;8386961;28;20101;-64
2021/12/23 03:56:09;;;;;;;53.72;23.85;;;;;;;0.67;93.05;100488.22;8388841;28;20040;-64
2021/12/23 04:00:13;;;;;;;53.53;24.30;;;;;;;0.67;93.54;100485.56;8386100;28;20127;-64
2021/12/23 04:04:14;;;;;;;54.30;25.60;;;;;;;0.64;94.28;100480.38;8388848;28;20048;-64
2021/12/23 04:08:14;;;;;;;55.47;26.20;;;;;;;0.61;94.08;100474.41;8387735;28;20356;-64
2021/12/23 04:12:15;;;;;;;51.85;26.20;;;;;;;0.60;95.17;100472.66;8388430;28;20032;-64
2021/12/23 04:16:15;;;;;;;53.42;24.10;;;;;;;0.59;95.39;100470.94;8380217;28;20408;-64
2021/12/23 04:20:21;;;;;;;56.20;24.77;;;;;;;0.59;95.47;100465.63;8388103;28;20590;-64
2021/12/23 04:24:22;;;;;;;57.25;25.52;;;;;;;0.57;95.76;100456.84;8388173;28;20113;-64
2021/12/23 04:28:24;;;;;;;55.90;25.38;;;;;;;0.52;95.75;100461.56;8387322;28;20791;-64
2021/12/23 04:32:25;;;;;;;56.28;26.17;;;;;;;0.51;96.00;100451.84;8387328;28;20457;-64
2021/12/23 04:36:27;;;;;;;63.25;25.92;;;;;;;0.53;95.77;100440.22;8392411;28;20056;-64
2021/12/23 04:40:30;;;;;;;57.15;27.17;;;;;;;0.50;96.01;100419.09;8387682;28;20041;-64
2021/12/23 04:44:31;;;;;;;61.08;24.85;;;;;;;0.46;95.84;100419.34;8379576;28;20329;-64
2021/12/23 04:48:32;;;;;;;57.35;25.13;;;;;;;0.45;96.21;100405.19;8385960;28;20214;-64
2021/12/23 04:52:33;;;;;;;62.10;27.00;;;;;;;0.47;95.93;100387.34;8386740;28;20404;-64
2021/12/23 04:56:33;;;;;;;55.95;24.85;;;;;;;0.56;95.08;100393.97;8386629;28;20067;-64
2021/12/23 05:00:34;;;;;;;55.75;25.92;;;;;;;0.56;95.03;100386.00;8380873;28;20041;-64
2021/12/23 05:04:34;;;;;;;57.53;26.83;;;;;;;0.59;95.46;100401.78;8381791;28;20393;-64
2021/12/23 05:08:35;;;;;;;56.45;23.98;;;;;;;0.51;95.52;100377.41;8375696;28;20131;-64
2021/12/23 05:12:42;;;;;;;59.75;25.40;;;;;;;0.48;95.64;100367.78;8378333;28;20055;-64
2021/12/23 05:16:42;;;;;;;57.85;25.70;;;;;;;0.46;96.24;100371.47;8383002;28;20064;-64
2021/12/23 05:20:44;;;;;;;49.22;22.10;;;;;;;0.48;95.57;100370.44;8382913;28;20044;-64
2021/12/23 05:24:44;;;;;;;56.75;25.33;;;;;;;0.46;95.81;100376.81;8378300;28;20123;-64
2021/12/23 05:28:44;;;;;;;53.97;25.40;;;;;;;0.44;95.76;100381.31;8380885;28;20116;-64
2021/12/23 05:32:46;;;;;;;57.28;25.92;;;;;;;0.42;95.73;100388.53;8381144;28;20037;-64
2021/12/23 05:36:46;;;;;;;57.95;25.70;;;;;;;0.36;96.03;100376.41;8380275;28;20044;-65
2021/12/23 05:40:47;;;;;;;61.72;26.17;;;;;;;0.33;95.89;100383.72;8380389;28;20495;-64
2021/12/23 05:44:47;;;;;;;58.75;25.48;;;;;;;0.20;96.36;100377.28;8380511;28;20041;-64
2021/12/23 05:48:47;;;;;;;55.10;24.80;;;;;;;0.25;96.74;100359.31;8380884;28;20044;-64
2021/12/23 05:52:48;;;;;;;57.35;24.60;;;;;;;0.35;96.35;100347.25;8375417;28;20631;-64
2021/12/23 05:56:49;;;;;;;57.22;25.88;;;;;;;0.39;95.81;100330.22;8374489;28;20130;-64
2021/12/23 06:00:53;;;;;;;62.55;28.23;;;;;;;0.52;95.34;100328.63;8380616;28;20033;-64
2021/12/23 06:04:53;;;;;;;57.03;25.35;;;;;;;0.60;94.36;100324.59;8381530;28;20044;-64
2021/12/23 06:08:53;;;;;;;55.08;25.10;;;;;;;0.69;94.49;100323.22;8380974;28;20052;-64
2021/12/23 06:12:54;;;;;;;55.30;25.13;;;;;;;0.74;94.48;100313.19;8380284;28;20173;-64
2021/12/23 06:16:54;;;;;;;64.22;25.08;;;;;;;0.77;94.40;100316.56;8374466;28;20045;-64
2021/12/23 06:20:55;;;;;;;55.38;24.85;;;;;;;0.78;94.59;100306.75;8372458;28;20181;-64
2021/12/23 06:24:56;;;;;;;54.67;24.48;;;;;;;0.80;94.49;100299.56;8383140;28;20053;-64
2021/12/23 06:28:56;;;;;;;58.25;26.27;;;;;;;0.79;94.82;100295.19;8382291;28;20118;-64
2021/12/23 06:32:57;;;;;;;57.40;26.52;;;;;;;0.86;95.15;100299.22;8376055;28;20041;-64
2021/12/23 06:36:57;;;;;;;52.42;24.92;;;;;;;0.90;94.57;100295.44;8377377;28;20347;-64
2021/12/23 06:40:58;;;;;;;53.00;24.20;;;;;;;0.97;94.03;100284.38;8381339;28;20047;-64
2021/12/23 06:44:58;;;;;;;56.65;24.73;;;;;;;0.92;94.89;100277.59;8381495;28;20442;-64
2021/12/23 06:48:59;;;;;;;57.25;25.88;;;;;;;0.93;94.43;100276.63;8384451;28;20520;-64
2021/12/23 06:52:59;;;;;;;54.28;24.42;;;;;;;0.96;94.48;100273.81;8385260;28;20036;-64
2021/12/23 06:57:00;;;;;;;55.70;25.17;;;;;;;0.99;94.72;100294.91;8380535;28;20044;-64
2021/12/23 07:01:00;;;;;;;56.33;24.88;;;;;;;0.97;95.41;100302.13;8384774;28;20044;-64
2021/12/23 07:05:01;;;;;;;50.80;25.83;;;;;;;1.01;95.06;100298.38;8382639;28;20136;-64
2021/12/23 07:09:05;;;;;;;57.30;24.05;;;;;;;1.13;94.68;100293.19;8379155;28;20040;-64
2021/12/23 07:13:05;;;;;;;57.05;25.05;;;;;;;1.19;93.65;100286.69;8383560;28;20044;-64
2021/12/23 07:17:07;;;;;;;53.78;24.98;;;;;;;1.26;93.32;100293.38;8385669;28;20052;-64
2021/12/23 07:21:07;;;;;;;55.58;22.98;;;;;;;1.30;93.38;100305.53;8382313;28;20188;-64
2021/12/23 07:25:08;;;;;;;57.47;24.77;;;;;;;1.25;93.30;100307.63;8384022;28;20600;-64
2021/12/23 07:29:09;;;;;;;54.20;25.20;;;;;;;1.25;93.76;100302.31;8380617;28;20143;-64
2021/12/23 07:33:09;;;;;;;55.58;24.63;;;;;;;1.27;93.54;100303.06;8381156;28;20119;-64
2021/12/23 07:37:10;;;;;;;50.70;23.33;;;;;;;1.33;92.90;100284.06;8381164;28;20706;-64
2021/12/23 07:41:11;;;;;;;51.63;24.30;;;;;;;1.41;92.64;100303.13;8381563;28;20036;-64
2021/12/23 07:45:11;;;;;;;54.20;24.33;;;;;;;1.46;92.21;100298.38;8381532;28;20040;-64
2021/12/23 07:49:12;;;;;;;57.00;25.00;;;;;;;1.34;92.54;100297.28;8380696;28;20032;-64
2021/12/23 07:53:12;;;;;;;54.42;25.10;;;;;;;1.48;91.56;100300.03;8380700;28;20053;-64
2021/12/23 07:57:13;;;;;;;48.85;22.48;;;;;;;1.52;91.52;100298.03;8395160;28;20527;-64
2021/12/23 08:01:13;;;;;;;46.88;23.70;;;;;;;1.56;91.17;100305.75;8386407;28;20155;-64
2021/12/23 08:05:14;;;;;;;51.53;23.25;;;;;;;1.58;91.00;100289.69;8386469;28;20184;-64
2021/12/23 08:09:14;;;;;;;45.15;23.40;;;;;;;1.61;90.87;100285.03;8385004;28;20033;-64
2021/12/23 08:13:15;;;;;;;57.88;24.70;;;;;;;1.65;90.81;100275.06;8382536;28;20500;-64
2021/12/23 08:17:15;;;;;;;54.45;24.33;;;;;;;1.65;91.17;100275.06;8383724;28;20169;-64
2021/12/23 08:21:16;;;;;;;47.28;21.48;;;;;;;1.75;89.89;100281.56;8383413;28;20484;-64
2021/12/23 08:25:16;;;;;;;57.42;24.60;;;;;;;1.78;89.46;100281.38;8383648;28;20045;-64
2021/12/23 08:29:19;;;;;;;49.90;22.83;;;;;;;1.81;90.01;100273.19;8383611;28;20068;-64
2021/12/23 08:33:19;;;;;;;50.30;23.38;;;;;;;1.81;89.85;100282.06;8383078;28;20033;-64
2021/12/23 08:37:19;;;;;;;47.10;21.98;;;;;;;1.84;89.69;100281.00;8383541;28;20029;-64
2021/12/23 08:41:20;;;;;;;53.90;23.95;;;;;;;1.83;90.05;100263.31;8383620;28;20040;-64
2021/12/23 08:45:23;;;;;;;55.83;27.58;;;;;;;1.82;90.87;100261.59;8383770;28;20052;-64
2021/12/23 08:49:23;;;;;;;65.07;29.08;;;;;;;1.80;90.86;100247.50;8379340;28;20040;-64
2021/12/23 08:53:24;;;;;;;66.53;30.05;;;;;;;1.88;90.71;100261.22;8379531;28;20040;-64
2021/12/23 08:57:24;;;;;;;55.58;26.67;;;;;;;1.87;91.40;100248.84;8381516;28;20055;-64
2021/12/23 09:01:24;;;;;;;66.30;29.90;;;;;;;1.92;90.75;100257.41;8383237;28;20041;-64
2021/12/23 09:05:25;;;;;;;58.97;25.27;;;;;;;2.04;90.56;100251.34;8382688;28;20064;-64
2021/12/23 09:09:26;;;;;;;56.88;23.73;;;;;;;2.11;89.58;100244.69;8380134;28;20048;-64
2021/12/23 09:13:27;;;;;;;50.45;21.83;;;;;;;2.30;88.92;100242.59;8381511;28;20213;-64
2021/12/23 09:17:27;;;;;;;53.58;23.15;;;;;;;2.42;87.92;100236.50;8383015;28;20047;-64
2021/12/23 09:21:27;;;;;;;45.97;22.75;;;;;;;2.52;87.46;100242.09;8383612;28;20029;-64
2021/12/23 09:25:32;;;;;;;51.50;22.85;;;;;;;2.68;86.53;100238.34;8383665;28;20056;-64
2021/12/23 09:33:51;;;;;;;50.58;22.98;;;;;;;2.87;85.16;100233.53;8384394;28;20852;-64
2021/12/23 09:37:52;;;;;;;45.67;21.02;;;;;;;3.07;84.99;100234.91;8382208;28;20032;-64
2021/12/23 09:41:53;;;;;;;46.47;21.10;;;;;;;3.05;84.26;100221.66;8383468;28;20048;-64
2021/12/23 09:45:54;;;;;;;44.63;20.52;;;;;;;3.06;83.94;100228.72;8382024;28;20040;-64
2021/12/23 09:49:56;;;;;;;47.47;22.13;;;;;;;3.16;83.56;100213.81;8381306;28;20391;-64
2021/12/23 09:54:00;;;;;;;47.70;21.85;;;;;;;3.25;82.75;100201.66;8381226;28;20519;-64
2021/12/23 09:58:02;;;;;;;;;;;;;;;3.39;82.25;100210.44;8380776;28;20036;-64
2021/12/23 10:02:03;;;;;;;41.92;19.35;;;;;;;3.57;81.76;100208.38;8380161;28;19916;-64
2021/12/23 10:06:03;;;;;;;40.88;18.85;;;;;;;3.76;80.15;100223.00;8380213;28;20048;-64
2021/12/23 10:10:11;;;;;;;45.65;20.42;;;;;;;3.93;79.29;100212.03;8383318;28;20032;-64
2021/12/23 10:32:13;;;;;;;47.08;20.60;;;;;;;4.07;78.23;100171.81;8387396;28;20346;-64
2021/12/23 10:40:20;;;;;;;47.10;21.45;;;;;;;4.06;80.37;100159.38;8405412;27;20400;-64
2021/12/23 10:44:30;;;;;;;44.42;19.73;;;;;;;4.16;79.96;100153.38;8396055;27;20072;-64
2021/12/23 10:48:33;;;;;;;46.85;20.55;;;;;;;4.13;79.61;100126.84;8406890;27;20044;-64
2021/12/23 10:52:34;;;;;;;42.10;19.87;;;;;;;4.24;79.61;100118.94;8399924;27;20471;-64
2021/12/23 10:58:11;;;;;;;43.72;19.55;;;;;;;4.26;80.08;100114.31;8398093;27;20044;-64
2021/12/23 11:00:59;;;;;;;45.17;19.08;;;;;;;4.40;79.63;100111.50;8387033;27;20046;-64
2021/12/23 11:09:35;;;;;;;40.88;19.92;;;;;;;4.52;79.36;100098.09;8350182;27;20402;-64
2021/12/23 11:32:10;;;;;;;50.50;19.85;;;;;;;4.74;80.24;100057.16;8372734;28;20124;-64
2021/12/23 11:40:13;;;;;;;46.45;18.88;;;;;;;4.96;79.97;100044.72;8350764;28;20492;-64
2021/12/23 11:44:00;;;;;;;45.17;20.27;;;;;;;4.94;80.65;100041.31;8379274;28;20508;-64
2021/12/23 11:48:05;;;;;;;46.13;20.58;;;;;;;4.93;80.40;100028.03;8373006;28;20090;-64
2021/12/23 11:52:06;;;;;;;44.30;20.70;;;;;;;5.01;79.99;100031.84;8379380;28;20033;-64
2021/12/23 11:56:10;;;;;;;42.20;20.50;;;;;;;5.07;79.78;100027.84;8379545;28;20523;-64
2021/12/23 12:04:28;;;;;;;46.28;21.48;;;;;;;5.34;79.07;100012.31;8378841;28;20428;-64
2021/12/23 12:08:29;;;;;;;45.70;21.17;;;;;;;5.34;79.61;99993.53;8379291;28;20044;-64
2021/12/23 12:12:33;;;;;;;41.45;19.10;;;;;;;5.29;80.09;99990.34;8378577;28;20033;-64
2021/12/23 12:16:36;;;;;;;43.55;19.83;;;;;;;5.25;80.32;99986.22;8352108;28;20527;-64
2021/12/23 12:20:45;;;;;;;44.03;19.77;;;;;;;5.23;80.74;99982.81;8360383;28;20041;-64
2021/12/23 12:24:46;;;;;;;47.13;21.02;;;;;;;5.32;80.63;99974.03;8351789;28;20049;-64
2021/12/23 12:28:47;;;;;;;42.38;20.77;;;;;;;5.32;81.33;99976.72;8350415;28;20059;-64
2021/12/23 12:32:48;;;;;;;49.92;20.60;;;;;;;5.47;80.80;99959.44;8355542;28;20519;-64
2021/12/23 12:36:50;;;;;;;41.50;21.33;;;;;;;5.58;80.94;99956.75;8339514;28;20449;-64
2021/12/23 12:41:25;;;;;;;49.22;21.27;;;;;;;5.57;81.16;99944.31;8338520;28;20040;-63
2021/12/23 12:45:26;;;;;;;48.13;19.88;;;;;;;5.60;81.41;99938.69;8324150;28;20860;-63
2021/12/23 12:49:31;;;;;;;50.67;19.63;;;;;;;5.65;81.58;99923.09;8314133;28;20460;-63
2021/12/23 12:53:50;;;;;;;48.70;20.65;;;;;;;5.73;82.57;99917.94;8328109;28;20128;-63
2021/12/23 12:57:57;;;;;;;40.15;19.25;;;;;;;5.75;82.85;99922.22;8316950;28;20038;-63
2021/12/23 13:01:59;;;;;;;43.88;19.63;;;;;;;5.86;83.11;99905.31;8325941;28;20069;-63
2021/12/23 13:06:02;;;;;;;43.05;19.98;;;;;;;5.99;82.35;99909.53;8324167;28;20044;-63
2021/12/23 13:10:18;;;;;;;48.58;21.05;;;;;;;6.09;82.55;99901.56;8320214;28;20103;-63
2021/12/23 13:14:22;;;;;;;47.55;20.60;;;;;;;6.30;82.56;99902.44;8334493;28;20036;-63
2021/12/23 13:18:23;;;;;;;42.53;20.17;;;;;;;6.35;82.01;99891.31;8317862;28;20578;-63
2021/12/23 13:22:25;;;;;;;46.45;20.25;;;;;;;6.27;82.95;99886.59;8321299;28;20390;-63
2021/12/23 13:26:26;;;;;;;46.42;20.75;;;;;;;6.16;83.18;99872.38;8322911;28;20103;-63
2021/12/23 13:30:27;;;;;;;42.92;20.08;;;;;;;6.12;83.33;99887.88;8318388;28;20238;-63
2021/12/23 13:34:31;;;;;;;48.28;20.77;;;;;;;6.10;84.57;99863.00;8304663;28;20049;-63
2021/12/23 13:38:38;;;;;;;40.45;19.80;;;;;;;6.17;84.65;99858.84;8327867;28;20127;-63
2021/12/23 13:42:41;;;;;;;46.35;20.70;;;;;;;6.25;85.71;99861.72;8304882;28;20042;-63
2021/12/23 13:46:44;;;;;;;42.78;19.98;;;;;;;6.22;85.52;99853.91;8307114;28;20418;-64
2021/12/23 13:50:45;;;;;;;42.22;19.88;;;;;;;6.21;85.76;99854.06;8321988;28;20041;-64
2021/12/23 13:54:46;;;;;;;46.63;21.25;;;;;;;6.16;86.10;99859.81;8326276;28;20037;-64
2021/12/23 13:58:47;;;;;;;45.10;21.73;;;;;;;6.25;87.49;99850.97;8324305;28;20125;-64
2021/12/23 14:02:53;;;;;;;44.95;22.33;;;;;;;6.23;87.68;99842.22;8322828;28;20544;-63
2021/12/23 14:06:54;;;;;;;44.13;21.67;;;;;;;6.22;87.00;99832.44;8318373;28;20610;-63
2021/12/23 14:10:54;;;;;;;48.97;21.67;;;;;;;6.40;86.59;99833.56;8330485;28;20108;-64
2021/12/23 14:14:58;;;;;;;44.15;21.27;;;;;;;6.32;87.35;99828.03;8324240;28;20426;-64
2021/12/23 14:19:20;;;;;;;45.58;21.85;;;;;;;6.41;88.23;99813.81;8318592;28;20095;-64
2021/12/23 14:23:23;;;;;;;44.75;21.63;;;;;;;6.48;87.71;99816.81;8315210;28;20266;-63
2021/12/23 14:27:23;;;;;;;;;;;;;;;6.42;87.36;99815.50;8311225;28;20045;-63
2021/12/23 14:31:28;;;;;;;49.25;20.02;;;;;;;6.50;87.97;99812.16;8325416;28;19929;-63
2021/12/23 14:35:28;;;;;;;48.13;21.65;;;;;;;6.66;87.27;99805.34;8312757;28;20040;-64
2021/12/23 14:39:36;;;;;;;47.28;22.05;;;;;;;6.60;87.93;99802.31;8327452;28;20106;-65
2021/12/23 14:43:53;;;;;;;46.65;21.27;;;;;;;6.63;89.29;99802.94;8319508;28;20209;-65
2021/12/23 14:48:10;;;;;;;52.20;22.35;;;;;;;6.51;89.89;99798.63;8316723;28;20419;-64
2021/12/23 14:56:24;;;;;;;45.03;22.20;;;;;;;6.46;91.89;99800.00;8404454;27;20400;-64
2021/12/23 15:00:31;;;;;;;47.78;20.55;;;;;;;6.46;93.74;99805.38;8396436;28;20385;-64
2021/12/23 15:04:32;;;;;;;47.58;21.65;;;;;;;6.56;94.88;99817.84;8385424;28;20163;-64
2021/12/23 15:08:33;;;;;;;44.95;19.98;;;;;;;6.67;95.08;99815.09;8363094;28;20051;-66
2021/12/23 15:12:36;;;;;;;44.00;20.23;;;;;;;6.63;95.91;99818.19;8362220;28;20393;-67
2021/12/23 15:16:36;;;;;;;44.45;20.20;;;;;;;6.61;96.35;99815.63;8359048;28;20045;-67
2021/12/23 15:20:36;;;;;;;44.78;20.73;;;;;;;6.69;96.57;99815.81;8360117;28;20048;-67
2021/12/23 15:24:39;;;;;;;48.55;21.48;;;;;;;6.51;97.43;99811.19;8379011;28;20114;-67
2021/12/23 15:28:39;;;;;;;46.95;21.00;;;;;;;6.69;97.00;99814.97;8384520;28;20253;-66
2021/12/23 15:32:40;;;;;;;46.47;22.80;;;;;;;6.50;96.64;99796.94;8372437;28;20064;-66
2021/12/23 15:36:42;;;;;;;45.70;23.13;;;;;;;6.55;96.38;99809.91;8380064;28;20080;-66
2021/12/23 15:40:42;;;;;;;47.05;21.92;;;;;;;6.41;96.81;99818.31;8365468;28;20040;-66
2021/12/23 15:44:45;;;;;;;45.30;20.25;;;;;;;6.27;98.06;99805.22;8360329;28;20233;-66
2021/12/23 15:48:45;;;;;;;41.28;21.17;;;;;;;6.22;99.14;99810.16;8363739;28;20333;-66
2021/12/23 15:52:46;;;;;;;50.75;22.77;;;;;;;6.43;98.79;99803.78;8364350;28;20052;-66
2021/12/23 15:56:47;;;;;;;45.75;21.13;;;;;;;6.40;98.77;99796.00;8370327;28;20127;-66
2021/12/23 16:00:48;;;;;;;49.60;24.63;;;;;;;6.36;99.11;99813.34;8359219;28;20098;-66
2021/12/23 16:09:19;;;;;;;43.50;20.80;;;;;;;6.09;100.00;99799.59;8287397;27;20397;-66
2021/12/23 16:13:19;;;;;;;43.83;20.90;;;;;;;6.08;100.00;99792.53;8303552;28;20041;-65
2021/12/23 16:17:21;;;;;;;52.35;24.10;;;;;;;6.12;100.00;99796.66;8289723;28;20734;-66
2021/12/23 16:21:21;;;;;;;46.47;21.55;;;;;;;6.04;100.00;99794.63;8329969;28;20242;-66
2021/12/23 16:25:21;;;;;;;53.97;22.65;;;;;;;5.87;100.00;99807.75;8328738;28;20046;-66
2021/12/23 16:30:07;;;;;;;48.25;21.48;;;;;;;5.72;100.00;99809.00;8332303;28;20146;-66
2021/12/23 16:34:07;;;;;;;45.88;21.50;;;;;;;5.80;100.00;99806.53;8338299;28;20879;-67
2021/12/23 16:38:09;;;;;;;46.78;22.58;;;;;;;5.99;100.00;99807.59;8339323;28;20045;-66
2021/12/23 16:42:09;;;;;;;51.38;21.33;;;;;;;6.22;100.00;99796.72;8334396;28;20265;-66
2021/12/23 16:46:10;;;;;;;47.10;20.85;;;;;;;6.07;100.00;99798.03;8335162;28;20045;-66
2021/12/23 16:50:11;;;;;;;47.80;21.85;;;;;;;6.03;100.00;99808.16;8338468;28;20519;-66
2021/12/23 16:54:12;;;;;;;48.25;21.58;;;;;;;5.98;100.00;99823.81;8341030;28;20155;-66
2021/12/23 16:58:17;;;;;;;44.67;21.50;;;;;;;5.98;100.00;99823.81;8338086;28;20124;-66
2021/12/23 17:02:18;;;;;;;48.10;21.80;;;;;;;5.74;100.00;99823.13;8338192;28;20488;-66
2021/12/23 17:06:20;;;;;;;49.22;23.23;;;;;;;5.67;100.00;99811.19;8337684;28;20471;-66
2021/12/23 17:10:24;;;;;;;54.35;23.48;;;;;;;5.89;100.00;99821.91;8322780;28;20040;-66
2021/12/23 17:14:25;;;;;;;52.88;23.33;;;;;;;5.91;100.00;99820.78;8337931;28;20476;-66
2021/12/23 17:18:34;;;;;;;52.20;24.67;;;;;;;6.03;100.00;99816.22;8322226;28;20088;-66
2021/12/23 17:22:35;;;;;;;53.85;25.17;;;;;;;6.08;100.00;99816.69;8313228;28;20041;-66
2021/12/23 17:26:36;;;;;;;57.72;26.60;;;;;;;6.02;100.00;99811.84;8311885;28;20037;-66
2021/12/23 17:30:37;;;;;;;66.40;30.75;;;;;;;6.25;100.00;99807.22;8304724;28;20053;-66
2021/12/23 17:34:38;;;;;;;69.00;31.35;;;;;;;6.14;100.00;99810.81;8310239;28;20044;-66
2021/12/23 17:38:45;;;;;;;63.40;31.10;;;;;;;6.09;100.00;99802.28;8308365;28;20768;-66
2021/12/23 17:42:46;;;;;;;56.35;27.27;;;;;;;6.06;100.00;99813.28;8309450;28;20037;-66
2021/12/23 17:46:46;;;;;;;56.80;26.25;;;;;;;6.23;100.00;99807.34;8303613;28;20037;-66
2021/12/23 17:50:47;;;;;;;55.80;27.60;;;;;;;6.08;100.00;99806.78;8307514;28;20072;-66
2021/12/23 17:54:53;;;;;;;54.47;25.25;;;;;;;6.19;100.00;99808.56;8309984;28;20045;-66
2021/12/23 17:58:54;;;;;;;54.92;26.50;;;;;;;6.23;100.00;99812.72;8310490;28;20508;-66
2021/12/23 18:02:55;;;;;;;58.17;24.45;;;;;;;6.30;100.00;99811.19;8308840;28;20142;-66
2021/12/23 18:06:56;;;;;;;47.45;22.98;;;;;;;6.32;100.00;99814.59;8308282;28;20076;-66
2021/12/23 18:10:57;;;;;;;47.80;24.23;;;;;;;6.37;100.00;99793.56;8297983;28;20184;-66
2021/12/23 18:14:57;;;;;;;50.83;22.70;;;;;;;6.58;100.00;99798.91;8315771;28;20218;-66
2021/12/23 18:18:58;;;;;;;43.50;20.45;;;;;;;6.72;100.00;99788.69;8316096;28;20052;-66
2021/12/23 18:22:59;;;;;;;45.15;20.20;;;;;;;6.71;100.00;99804.94;8317415;28;20104;-66
2021/12/23 18:27:01;;;;;;;43.58;20.50;;;;;;;6.56;100.00;99807.09;8293300;28;20592;-66
2021/12/23 18:31:01;;;;;;;34.28;16.50;;;;;;;6.81;100.00;99806.69;8315841;28;20038;-66
2021/12/23 18:35:01;;;;;;;25.30;13.00;;;;;;;8.06;100.00;99798.72;8298933;28;20048;-66
2021/12/23 18:39:11;;;;;;;24.92;13.50;;;;;;;8.66;100.00;99799.41;8295331;28;20048;-66
2021/12/23 18:43:13;;;;;;;29.15;13.15;;;;;;;8.90;100.00;99791.63;8315718;28;20121;-66
2021/12/23 18:47:13;;;;;;;25.98;11.85;;;;;;;9.00;100.00;99789.78;8307340;28;20042;-66
2021/12/23 18:51:15;;;;;;;28.67;11.98;;;;;;;9.12;100.00;99784.03;8307022;28;20112;-66
2021/12/23 18:55:15;;;;;;;30.70;13.60;;;;;;;9.06;100.00;99783.78;8310600;28;20172;-66
2021/12/23 18:59:16;;;;;;;24.77;13.25;;;;;;;9.06;100.00;99783.78;8300741;28;20038;-66
2021/12/23 19:03:27;;;;;;;31.80;14.10;;;;;;;8.97;100.00;99773.91;8298412;28;20064;-66
2021/12/23 19:07:28;;;;;;;22.95;10.77;;;;;;;8.88;100.00;99764.84;8311238;28;20041;-67
2021/12/23 19:11:34;;;;;;;28.23;11.88;;;;;;;8.91;100.00;99758.31;8316588;28;20073;-66
2021/12/23 19:15:34;;;;;;;23.65;11.95;;;;;;;9.01;100.00;99751.03;8316652;28;20041;-67
2021/12/23 19:19:35;;;;;;;20.00;10.55;;;;;;;8.97;100.00;99753.16;8306598;28;20056;-66
2021/12/23 19:23:36;;;;;;;21.08;11.98;;;;;;;8.99;100.00;99750.31;8303231;28;20050;-66
2021/12/23 19:27:37;;;;;;;25.52;13.43;;;;;;;8.88;100.00;99737.88;8315383;28;20045;-66
2021/12/23 19:31:38;;;;;;;21.63;11.55;;;;;;;8.59;100.00;99741.69;8303964;28;20107;-66
2021/12/23 19:35:39;;;;;;;26.38;13.05;;;;;;;8.42;100.00;99729.81;8315843;28;20497;-66
2021/12/23 19:39:40;;;;;;;32.28;15.32;;;;;;;8.09;100.00;99723.06;8313509;28;20670;-67
2021/12/23 19:43:40;;;;;;;30.63;15.40;;;;;;;7.94;100.00;99713.75;8310414;28;20029;-67
2021/12/23 19:47:41;;;;;;;28.15;14.13;;;;;;;7.90;100.00;99701.59;8303071;28;21046;-66